Time;durP1;ratioP1;P1;durP2;ratioP2;P2;SDS_P1;SDS_P2;PMS_P1;PMS_P2;Temp;Humidity;BMP_temperature;BMP_pressure;BME280_temperature;BME280_humidity;BME280_pressure;Samples;Min_cycle;Max_cycle;Signal;HPM_P1;HPM_P2
2023/03/07 00:00:47;;;;;;;21.50;12.13;;;;;;;2.68;66.54;96490.66;10500106;28;20089;-79
2023/03/07 00:06:10;;;;;;;18.60;12.15;;;;;;;2.62;67.12;96483.97;10487479;28;20100;-80
2023/03/07 00:11:31;;;;;;;19.55;11.93;;;;;;;2.58;66.97;96481.59;10500001;28;20043;-80
2023/03/07 00:16:52;;;;;;;19.35;11.73;;;;;;;2.51;67.13;96474.16;10485750;28;20066;-79
2023/03/07 00:22:13;;;;;;;24.67;13.60;;;;;;;2.49;67.28;96485.03;10499420;28;20059;-79
2023/03/07 00:27:35;;;;;;;21.08;12.75;;;;;;;2.44;67.71;96472.97;10485600;28;20040;-79
2023/03/07 00:32:56;;;;;;;19.45;12.32;;;;;;;2.38;67.48;96469.03;10499764;28;20051;-79
2023/03/07 00:38:17;;;;;;;18.38;11.40;;;;;;;2.33;67.86;96461.75;10485193;28;20045;-79
2023/03/07 00:43:38;;;;;;;20.30;12.40;;;;;;;2.37;67.61;96456.56;10485140;28;20036;-79
2023/03/07 00:48:59;;;;;;;21.23;12.60;;;;;;;2.39;67.68;96448.44;10498700;28;20044;-79
2023/03/07 00:54:20;;;;;;;20.13;12.63;;;;;;;2.39;67.50;96435.41;10484837;28;20055;-79
2023/03/07 00:59:40;;;;;;;21.20;12.18;;;;;;;2.36;68.06;96424.81;10484136;28;20040;-79
2023/03/07 01:05:02;;;;;;;20.50;12.07;;;;;;;2.30;68.17;96425.78;10511587;28;20062;-79
2023/03/07 01:10:24;;;;;;;21.20;12.35;;;;;;;2.33;67.87;96418.41;10497158;28;20055;-78
2023/03/07 01:15:46;;;;;;;19.95;11.77;;;;;;;2.34;68.22;96424.66;10481341;28;20049;-79
2023/03/07 01:21:15;;;;;;;23.00;11.63;;;;;;;2.36;68.73;96409.00;10457559;28;20477;-79
2023/03/07 01:26:36;;;;;;;20.67;12.10;;;;;;;2.39;68.20;96404.38;10443888;28;20478;-78
2023/03/07 01:31:58;;;;;;;20.42;11.70;;;;;;;2.43;67.91;96386.16;10443426;28;20045;-79
2023/03/07 01:37:19;;;;;;;19.30;11.73;;;;;;;2.50;68.20;96385.28;10457138;28;20478;-79
2023/03/07 01:42:40;;;;;;;18.95;11.38;;;;;;;2.57;67.65;96392.72;10443127;28;20466;-79
2023/03/07 01:48:01;;;;;;;20.10;11.68;;;;;;;2.64;67.69;96393.19;10456724;28;20048;-79
2023/03/07 01:53:25;;;;;;;19.20;12.27;;;;;;;2.68;67.93;96382.47;10457637;28;20041;-79
2023/03/07 01:58:46;;;;;;;19.70;12.30;;;;;;;2.65;67.14;96373.34;10456650;28;20493;-79
2023/03/07 02:04:12;;;;;;;21.90;13.02;;;;;;;2.66;67.32;96368.53;10443340;28;20059;-78
2023/03/07 02:09:33;;;;;;;22.20;12.63;;;;;;;2.66;67.06;96369.28;10470943;28;20068;-79
2023/03/07 02:14:54;;;;;;;19.05;11.75;;;;;;;2.64;67.71;96355.34;10442469;28;20097;-79
2023/03/07 02:20:40;;;;;;;18.63;12.15;;;;;;;2.69;67.48;96364.63;10469724;28;20040;-79
2023/03/07 02:26:12;;;;;;;20.52;11.70;;;;;;;2.74;67.95;96356.09;10483767;28;20094;-79
2023/03/07 02:31:33;;;;;;;18.40;11.80;;;;;;;2.74;67.51;96358.13;10441928;28;20098;-79
2023/03/07 02:37:08;;;;;;;17.92;11.73;;;;;;;2.81;66.98;96349.03;10469144;28;20493;-79
2023/03/07 02:42:29;;;;;;;19.38;12.18;;;;;;;2.81;67.40;96340.75;10470400;28;20051;-79
2023/03/07 02:47:58;;;;;;;18.67;10.68;;;;;;;2.86;66.97;96334.22;10471310;28;20037;-79
2023/03/07 02:53:22;;;;;;;17.63;11.38;;;;;;;2.88;66.83;96345.41;10455369;28;20048;-79
2023/03/07 02:58:43;;;;;;;17.67;11.35;;;;;;;2.84;66.79;96339.59;10454926;28;20064;-79
2023/03/07 03:04:04;;;;;;;18.38;11.10;;;;;;;2.85;67.06;96332.78;10454666;28;20060;-79
2023/03/07 03:09:26;;;;;;;19.77;11.38;;;;;;;2.88;66.33;96326.09;10454737;28;20036;-79
2023/03/07 03:14:46;;;;;;;17.58;10.75;;;;;;;2.86;66.63;96321.19;10468465;28;20040;-79
2023/03/07 03:20:11;;;;;;;17.55;11.13;;;;;;;2.89;66.67;96319.28;10456007;28;20551;-79
2023/03/07 03:25:32;;;;;;;18.73;11.32;;;;;;;2.88;66.54;96317.84;10468967;28;20048;-79
2023/03/07 03:31:00;;;;;;;15.15;10.13;;;;;;;2.88;66.71;96304.78;10454349;28;20482;-79
2023/03/07 03:36:24;;;;;;;20.33;10.88;;;;;;;2.90;66.54;96300.75;10447730;28;20044;-79
2023/03/07 03:41:48;;;;;;;15.65;9.55;;;;;;;2.88;65.84;96301.28;10449455;28;20055;-79
2023/03/07 03:47:11;;;;;;;20.45;10.60;;;;;;;2.89;66.52;96297.22;10461434;28;20460;-79
2023/03/07 03:52:34;;;;;;;15.43;9.80;;;;;;;2.86;65.95;96285.34;10461438;28;20051;-78
2023/03/07 03:57:55;;;;;;;16.55;9.50;;;;;;;2.84;65.94;96292.75;10447884;28;20506;-79
2023/03/07 04:03:16;;;;;;;14.70;9.15;;;;;;;2.84;65.57;96293.47;10460499;28;20053;-79
2023/03/07 04:08:37;;;;;;;17.73;10.00;;;;;;;2.82;65.45;96278.81;10446772;28;20052;-78
2023/03/07 04:13:58;;;;;;;13.68;9.23;;;;;;;2.85;65.49;96277.66;10460507;28;20044;-79
2023/03/07 04:19:20;;;;;;;15.98;10.50;;;;;;;2.90;65.01;96276.66;10446627;28;20067;-79
2023/03/07 04:24:44;;;;;;;18.08;10.63;;;;;;;2.85;65.09;96277.66;10473990;28;20048;-79
2023/03/07 04:30:05;;;;;;;17.50;10.02;;;;;;;2.86;64.84;96268.09;10446570;28;20049;-79
2023/03/07 04:35:26;;;;;;;16.30;10.20;;;;;;;2.83;64.70;96260.97;10459533;28;20051;-79
2023/03/07 04:40:48;;;;;;;17.55;10.32;;;;;;;2.89;64.08;96258.66;10446212;28;20052;-79
2023/03/07 04:46:10;;;;;;;15.63;10.00;;;;;;;2.88;64.63;96260.69;10457677;28;20390;-79
2023/03/07 04:51:31;;;;;;;16.63;9.88;;;;;;;2.91;64.41;96250.53;10445443;28;20045;-79
2023/03/07 04:56:52;;;;;;;19.20;10.30;;;;;;;2.88;64.26;96240.66;10458813;28;20045;-79
2023/03/07 05:02:13;;;;;;;16.63;9.60;;;;;;;2.79;63.64;96233.13;10458222;28;20052;-79
2023/03/07 05:07:35;;;;;;;16.50;9.77;;;;;;;2.73;63.64;96221.66;10458159;28;20623;-79
2023/03/07 05:12:56;;;;;;;17.35;10.02;;;;;;;2.67;64.19;96221.94;10458703;28;20045;-80
2023/03/07 05:18:16;;;;;;;16.25;9.43;;;;;;;2.68;63.71;96215.13;10444517;28;20102;-80
2023/03/07 05:23:37;;;;;;;18.25;10.20;;;;;;;2.73;63.82;96207.88;10473383;28;20394;-80
2023/03/07 05:29:00;;;;;;;17.60;10.00;;;;;;;2.73;63.31;96205.84;10446758;28;20059;-80
2023/03/07 05:34:21;;;;;;;16.58;9.38;;;;;;;2.71;63.16;96219.50;10446026;28;20402;-79
2023/03/07 05:39:42;;;;;;;17.25;9.95;;;;;;;2.75;63.66;96214.25;10458472;28;20512;-79
2023/03/07 05:45:04;;;;;;;17.27;10.20;;;;;;;2.76;63.19;96210.19;10471441;28;20044;-79
2023/03/07 05:50:25;;;;;;;18.63;9.85;;;;;;;2.76;63.39;96215.00;10445393;28;20051;-80
2023/03/07 05:55:49;;;;;;;16.15;9.93;;;;;;;2.73;63.23;96211.38;10457530;28;20040;-79
2023/03/07 06:01:16;;;;;;;18.60;10.98;;;;;;;2.77;62.98;96200.63;10484832;28;20055;-79
2023/03/07 06:06:38;;;;;;;18.85;11.48;;;;;;;2.85;62.67;96201.22;10445314;28;20044;-80
2023/03/07 06:12:00;;;;;;;17.02;10.43;;;;;;;3.02;62.16;96214.13;10463788;28;20445;-79
2023/03/07 06:17:23;;;;;;;18.95;10.63;;;;;;;3.24;62.38;96194.94;10471986;28;20041;-80
2023/03/07 06:22:46;;;;;;;19.42;11.40;;;;;;;3.64;61.63;96200.53;10462496;28;20048;-79
2023/03/07 06:28:08;;;;;;;20.70;10.85;;;;;;;4.15;60.20;96195.69;10477914;28;20063;-78
2023/03/07 06:33:29;;;;;;;19.00;11.50;;;;;;;4.13;60.17;96197.56;10469091;28;20075;-79
2023/03/07 06:38:50;;;;;;;18.48;10.65;;;;;;;3.95;59.49;96177.75;10463946;28;20056;-79
2023/03/07 06:44:12;;;;;;;21.85;11.20;;;;;;;3.67;59.72;96191.09;10481398;28;20044;-80
2023/03/07 06:49:33;;;;;;;17.55;10.88;;;;;;;3.69;59.70;96187.75;10495305;28;20066;-78
2023/03/07 06:54:54;;;;;;;22.77;11.43;;;;;;;3.65;59.07;96199.22;10445032;28;20470;-79
2023/03/07 07:00:15;;;;;;;17.83;11.18;;;;;;;3.69;59.18;96204.31;10456308;28;20037;-79
2023/03/07 07:05:37;;;;;;;18.65;11.05;;;;;;;3.79;58.66;96198.75;10463165;28;20398;-79
2023/03/07 07:10:58;;;;;;;14.52;9.18;;;;;;;3.99;58.77;96197.34;10449304;28;20093;-79
2023/03/07 07:16:20;;;;;;;19.42;10.93;;;;;;;4.16;57.95;96199.91;10463145;28;20475;-79
2023/03/07 07:21:42;;;;;;;17.67;11.40;;;;;;;4.61;57.36;96189.00;10489178;28;20469;-79
2023/03/07 07:27:06;;;;;;;18.50;10.88;;;;;;;5.35;56.89;96197.88;10504892;28;20044;-80
2023/03/07 07:32:27;;;;;;;17.80;10.27;;;;;;;6.43;56.01;96184.25;10517787;28;20492;-79
2023/03/07 07:37:48;;;;;;;18.10;10.18;;;;;;;6.91;53.16;96186.31;10503677;28;20112;-79
2023/03/07 07:43:13;;;;;;;16.38;10.07;;;;;;;6.78;52.68;96184.19;10487634;28;20076;-79
2023/03/07 07:48:42;;;;;;;19.30;10.30;;;;;;;6.86;51.53;96168.03;10504907;28;20481;-79
2023/03/07 07:54:04;;;;;;;15.30;9.95;;;;;;;6.55;50.80;96185.69;10489160;28;20047;-79
2023/03/07 07:59:24;;;;;;;15.50;9.80;;;;;;;6.31;51.90;96187.78;10502350;28;20047;-79
2023/03/07 08:04:46;;;;;;;12.95;8.48;;;;;;;5.99;52.01;96169.97;10515809;28;20105;-78
2023/03/07 08:10:08;;;;;;;14.20;9.25;;;;;;;5.95;51.55;96183.56;10502076;28;20036;-80
2023/03/07 08:15:29;;;;;;;14.60;9.32;;;;;;;5.99;51.77;96183.81;10502145;28;20478;-79
2023/03/07 08:20:49;;;;;;;12.77;8.38;;;;;;;6.10;51.46;96179.59;10501732;28;20390;-79
2023/03/07 08:26:12;;;;;;;15.63;9.07;;;;;;;6.10;50.71;96185.13;10501548;28;20498;-79
2023/03/07 08:31:32;;;;;;;13.45;7.90;;;;;;;6.06;50.73;96186.94;10515488;28;20063;-79
2023/03/07 08:36:54;;;;;;;13.32;7.32;;;;;;;5.80;50.77;96178.47;10499430;28;20040;-80
2023/03/07 08:42:15;;;;;;;12.27;8.18;;;;;;;5.74;50.97;96184.34;10500956;28;20047;-81
2023/03/07 08:47:36;;;;;;;10.30;7.10;;;;;;;5.68;51.36;96180.50;10515260;28;20066;-80
2023/03/07 08:52:57;;;;;;;11.05;7.15;;;;;;;5.90;51.37;96195.72;10500706;28;20040;-77
2023/03/07 08:58:18;;;;;;;10.77;7.25;;;;;;;5.81;51.62;96177.16;10500664;28;20070;-77
2023/03/07 09:03:42;;;;;;;15.43;8.02;;;;;;;5.75;52.03;96187.84;10513982;28;20056;-77
2023/03/07 09:09:06;;;;;;;13.52;8.55;;;;;;;5.52;52.05;96193.34;10501690;28;20040;-77
2023/03/07 09:14:27;;;;;;;12.75;8.30;;;;;;;5.54;52.17;96190.72;10499587;28;20051;-77
2023/03/07 09:19:49;;;;;;;13.70;8.45;;;;;;;5.61;52.34;96178.69;10513382;28;20495;-77
2023/03/07 09:25:09;;;;;;;13.52;8.65;;;;;;;5.70;52.36;96184.13;10499526;28;20494;-77
2023/03/07 09:30:30;;;;;;;10.43;7.28;;;;;;;6.00;52.44;96179.00;10497959;28;20397;-77
2023/03/07 09:35:51;;;;;;;13.57;7.93;;;;;;;6.20;52.01;96168.38;10526718;28;20072;-77
2023/03/07 09:41:21;;;;;;;11.80;8.40;;;;;;;6.12;51.64;96179.00;10495476;28;20123;-78
2023/03/07 09:47:09;;;;;;;12.00;7.43;;;;;;;6.31;51.70;96185.00;10482080;28;20385;-78
2023/03/07 09:52:32;;;;;;;13.43;7.65;;;;;;;6.37;51.45;96156.94;10479700;28;20041;-79
2023/03/07 09:57:54;;;;;;;12.00;7.63;;;;;;;6.59;51.50;96174.13;10445927;28;20496;-78
2023/03/07 10:03:27;;;;;;;14.63;7.68;;;;;;;6.91;50.97;96146.78;10496196;28;20085;-78
2023/03/07 10:08:48;;;;;;;12.40;6.75;;;;;;;7.31;50.64;96153.81;10525277;28;20051;-79
2023/03/07 10:14:17;;;;;;;12.40;7.40;;;;;;;7.20;49.52;96137.94;10497467;28;20071;-77
2023/03/07 10:19:43;;;;;;;11.35;6.95;;;;;;;7.52;49.84;96139.69;10497017;28;20040;-76
2023/03/07 10:25:16;;;;;;;11.27;6.75;;;;;;;8.01;48.80;96131.16;10511302;28;20036;-76
2023/03/07 10:30:37;;;;;;;9.85;6.57;;;;;;;8.67;46.66;96130.28;10511650;28;20044;-78
2023/03/07 10:36:50;;;;;;;11.77;6.53;;;;;;;9.77;45.22;96124.25;10510852;28;20068;-78
2023/03/07 10:42:34;;;;;;;8.85;6.18;;;;;;;10.73;42.91;96131.16;10528926;28;20469;-79
2023/03/07 10:47:57;;;;;;;12.18;6.30;;;;;;;10.66;41.66;96132.25;10509739;28;20424;-78
2023/03/07 10:53:25;;;;;;;7.47;5.57;;;;;;;10.96;41.21;96130.69;10538141;28;20040;-77
2023/03/07 10:58:59;;;;;;;7.50;5.45;;;;;;;10.26;40.74;96115.97;10510615;28;20040;-77
2023/03/07 11:04:20;;;;;;;;;;;;;;;9.90;40.95;96103.94;10522949;28;20048;-77
2023/03/07 11:09:47;;;;;;;7.60;5.53;;;;;;;9.70;41.05;96100.25;10519182;28;19965;-78
2023/03/07 11:15:10;;;;;;;8.90;5.45;;;;;;;9.70;41.16;96089.09;10498965;28;20040;-78
2023/03/07 11:20:50;;;;;;;7.33;4.97;;;;;;;10.34;40.97;96081.41;10490184;28;20063;-78
2023/03/07 11:26:16;;;;;;;8.45;5.30;;;;;;;10.80;40.31;96083.28;10476910;28;20391;-78
2023/03/07 11:31:56;;;;;;;6.63;4.88;;;;;;;11.05;39.82;96089.84;10503449;28;20039;-78
2023/03/07 11:37:28;;;;;;;9.05;5.32;;;;;;;10.97;38.41;96081.88;10531771;28;20439;-78
2023/03/07 11:43:01;;;;;;;8.80;6.32;;;;;;;10.55;39.06;96062.06;10518346;28;20047;-78
2023/03/07 11:48:47;;;;;;;8.80;5.45;;;;;;;10.54;39.34;96066.22;10504343;28;20042;-78
2023/03/07 11:54:43;;;;;;;8.40;5.55;;;;;;;10.29;39.60;96052.63;10545383;28;20410;-78
2023/03/07 12:00:19;;;;;;;7.20;5.35;;;;;;;10.76;39.38;96057.31;10504089;28;20052;-78
2023/03/07 12:05:58;;;;;;;8.30;5.50;;;;;;;10.59;39.39;96014.81;10503082;28;20044;-78
2023/03/07 12:11:42;;;;;;;6.45;4.82;;;;;;;11.23;38.58;96031.19;10516346;28;20040;-78
2023/03/07 12:17:37;;;;;;;5.90;4.47;;;;;;;11.12;38.38;96019.63;10511431;28;20064;-78
2023/03/07 12:23:04;;;;;;;5.78;4.32;;;;;;;10.85;38.96;96017.19;10529609;28;20094;-78
2023/03/07 12:28:49;;;;;;;7.68;5.30;;;;;;;10.68;38.99;96006.75;10515313;28;20044;-78
2023/03/07 12:34:37;;;;;;;7.00;5.03;;;;;;;10.34;38.55;96001.25;10528841;28;20044;-78
2023/03/07 12:40:03;;;;;;;6.95;4.88;;;;;;;10.76;39.13;95995.91;10514669;28;20047;-78
2023/03/07 12:45:32;;;;;;;7.25;4.70;;;;;;;12.23;37.75;96002.59;10501370;28;20058;-77
2023/03/07 12:51:21;;;;;;;4.80;3.72;;;;;;;12.70;35.80;96006.91;10488895;28;20044;-78
2023/03/07 12:57:05;;;;;;;5.80;4.25;;;;;;;12.02;35.59;95994.91;10514660;28;20040;-78
2023/03/07 13:02:28;;;;;;;5.18;3.78;;;;;;;11.13;36.33;95986.84;10500139;28;20078;-78
2023/03/07 13:07:49;;;;;;;5.63;4.10;;;;;;;10.40;37.00;95990.31;10499018;28;20409;-78
2023/03/07 13:13:42;;;;;;;6.25;4.50;;;;;;;10.10;37.62;95980.69;10485914;28;20044;-78
2023/03/07 13:19:34;;;;;;;4.70;3.60;;;;;;;9.50;38.26;95985.16;10527255;28;20040;-78
2023/03/07 13:25:20;;;;;;;5.40;3.58;;;;;;;9.15;39.45;95981.56;10541959;28;20047;-78
2023/03/07 13:30:41;;;;;;;5.30;3.60;;;;;;;8.75;39.47;95979.72;10541779;28;20051;-78
2023/03/07 13:36:03;;;;;;;6.50;4.18;;;;;;;8.39;40.08;95982.25;10535469;28;20097;-78
2023/03/07 13:41:43;;;;;;;6.13;4.40;;;;;;;8.02;41.25;95979.75;10501510;28;20040;-78
2023/03/07 13:47:39;;;;;;;6.43;3.97;;;;;;;7.82;42.36;95981.53;10521535;28;20040;-78
2023/03/07 13:53:15;;;;;;;9.15;5.40;;;;;;;7.86;42.57;95963.00;10540736;28;20036;-78
2023/03/07 13:58:42;;;;;;;10.13;5.38;;;;;;;8.22;42.98;95969.63;10490493;28;20551;-78
2023/03/07 14:04:22;;;;;;;10.93;5.25;;;;;;;7.95;43.80;95944.69;10511590;28;20051;-78
2023/03/07 14:10:16;;;;;;;7.15;4.55;;;;;;;7.65;44.51;95952.94;10502651;28;20482;-78
2023/03/07 14:15:55;;;;;;;10.18;5.63;;;;;;;7.53;44.96;95937.72;10488955;28;21092;-78
2023/03/07 14:21:28;;;;;;;8.20;5.45;;;;;;;7.57;45.34;95952.53;10511535;28;20063;-78
2023/03/07 14:26:52;;;;;;;10.45;5.97;;;;;;;7.74;45.56;95929.09;10512074;28;20040;-79
2023/03/07 14:32:24;;;;;;;10.52;6.50;;;;;;;8.02;45.76;95938.06;10484710;28;20040;-77
2023/03/07 14:37:45;;;;;;;9.90;5.45;;;;;;;8.49;45.08;95941.03;10511684;28;20050;-77
2023/03/07 14:43:12;;;;;;;10.20;5.78;;;;;;;8.39;43.91;95946.09;10511116;28;20044;-74
2023/03/07 14:48:43;;;;;;;7.10;5.20;;;;;;;8.28;44.01;95933.75;10525605;28;20052;-76
2023/03/07 14:54:07;;;;;;;9.00;5.47;;;;;;;8.12;44.47;95924.66;10524700;28;20508;-77
2023/03/07 14:59:28;;;;;;;;;;;;;;;7.99;44.25;95933.75;10510059;28;20048;-77
2023/03/07 15:04:52;;;;;;;9.40;5.30;;;;;;;7.89;44.44;95964.53;10510559;28;20407;-78
2023/03/07 15:10:19;;;;;;;7.13;4.93;;;;;;;7.74;44.12;95915.91;10510321;28;20097;-78
2023/03/07 15:15:42;;;;;;;7.80;5.00;;;;;;;7.72;43.62;95926.94;10482727;28;20059;-76
2023/03/07 15:21:03;;;;;;;8.82;5.25;;;;;;;7.80;43.99;95912.69;10482614;28;20048;-77
2023/03/07 15:26:26;;;;;;;10.02;5.07;;;;;;;7.85;43.74;95917.13;10496187;28;20040;-77
2023/03/07 15:31:51;;;;;;;12.15;5.55;;;;;;;7.66;43.85;95915.50;10502120;28;20068;-78
2023/03/07 15:37:23;;;;;;;9.60;5.47;;;;;;;7.47;43.86;95899.28;10485580;28;20047;-79
2023/03/07 15:42:50;;;;;;;7.65;5.07;;;;;;;7.41;44.13;95899.69;10517929;28;20055;-80
2023/03/07 15:48:18;;;;;;;8.25;5.47;;;;;;;7.29;44.22;95895.59;10530992;28;20049;-77
2023/03/07 15:53:39;;;;;;;10.07;5.88;;;;;;;7.22;44.24;95916.06;10516724;28;20044;-78
2023/03/07 15:59:02;;;;;;;11.45;6.28;;;;;;;7.18;44.54;95908.97;10503446;28;20040;-77
2023/03/07 16:04:36;;;;;;;10.40;5.65;;;;;;;7.04;44.81;95933.19;10502765;28;20059;-78
2023/03/07 16:09:57;;;;;;;;;;;;;;;6.93;44.96;95934.00;10517046;28;20044;-80
2023/03/07 16:15:19;;;;;;;10.85;5.72;;;;;;;6.84;45.21;95937.69;10502436;28;19924;-77
2023/03/07 16:20:41;;;;;;;11.00;5.80;;;;;;;6.75;45.87;95933.75;10502818;28;20067;-78
2023/03/07 16:26:02;;;;;;;10.48;6.75;;;;;;;6.65;45.64;95927.69;10486673;28;20119;-74
2023/03/07 16:31:27;;;;;;;11.63;6.35;;;;;;;6.56;45.80;95932.09;10491452;28;20085;-77
2023/03/07 16:36:48;;;;;;;10.30;6.63;;;;;;;6.45;46.19;95932.88;10517635;28;20047;-77
2023/03/07 16:42:18;;;;;;;8.90;5.65;;;;;;;6.38;46.02;95928.34;10503887;28;20040;-77
2023/03/07 16:47:39;;;;;;;11.13;5.93;;;;;;;6.28;46.25;95917.44;10500937;28;20443;-76
2023/03/07 16:53:00;;;;;;;9.65;5.65;;;;;;;6.20;46.22;95921.81;10496773;28;20040;-77
2023/03/07 16:58:26;;;;;;;12.60;6.90;;;;;;;6.12;46.97;95930.38;10501645;28;20551;-77
2023/03/07 17:03:47;;;;;;;12.02;7.20;;;;;;;6.13;47.11;95931.09;10480440;28;20510;-75
2023/03/07 17:09:09;;;;;;;10.25;6.63;;;;;;;6.08;46.99;95940.50;10457814;28;20441;-75
2023/03/07 17:14:30;;;;;;;11.50;6.68;;;;;;;5.97;47.52;95931.63;10471808;28;20044;-75
2023/03/07 17:19:51;;;;;;;12.50;6.43;;;;;;;5.95;47.82;95952.97;10472033;28;20041;-75
2023/03/07 17:25:12;;;;;;;12.38;6.53;;;;;;;5.96;47.56;95955.13;10457485;28;20045;-77
2023/03/07 17:30:34;;;;;;;11.93;7.13;;;;;;;5.92;48.14;95957.69;10478803;28;20089;-75
2023/03/07 17:35:56;;;;;;;9.50;6.18;;;;;;;5.85;48.31;95963.44;10498829;28;20048;-75
2023/03/07 17:41:18;;;;;;;11.38;7.22;;;;;;;5.78;48.71;95961.66;10513161;28;20040;-76
2023/03/07 17:46:38;;;;;;;12.35;7.05;;;;;;;5.76;48.71;95978.88;10485717;28;20036;-77
2023/03/07 17:51:59;;;;;;;12.50;7.20;;;;;;;5.72;49.22;95953.72;10490539;28;20043;-76
2023/03/07 17:57:20;;;;;;;12.90;7.18;;;;;;;5.62;49.10;95961.47;10463490;28;20040;-75
2023/03/07 18:02:43;;;;;;;10.40;5.95;;;;;;;5.54;48.87;95963.75;10477607;28;20059;-75
2023/03/07 18:08:04;;;;;;;11.93;6.85;;;;;;;5.40;49.75;95967.16;10497932;28;20044;-77
2023/03/07 18:13:25;;;;;;;13.43;7.75;;;;;;;5.32;50.18;95961.13;10511271;28;20506;-76
2023/03/07 18:18:45;;;;;;;12.25;6.68;;;;;;;5.32;49.94;95960.41;10511195;28;20073;-78
2023/03/07 18:24:20;;;;;;;12.80;7.13;;;;;;;5.26;50.23;95957.28;10514650;28;20047;-75
2023/03/07 18:29:41;;;;;;;11.65;7.00;;;;;;;5.20;50.40;95965.94;10497446;28;20509;-75
2023/03/07 18:35:03;;;;;;;11.57;7.22;;;;;;;5.15;50.31;95955.97;10499117;28;20522;-75
2023/03/07 18:40:24;;;;;;;12.93;7.80;;;;;;;5.12;50.57;95948.88;10498608;28;20470;-76
2023/03/07 18:45:46;;;;;;;11.90;7.07;;;;;;;5.12;50.11;95951.66;10524766;28;20055;-75
2023/03/07 18:51:12;;;;;;;9.45;6.03;;;;;;;5.11;49.97;95953.66;10496380;28;20042;-76
2023/03/07 18:56:33;;;;;;;10.48;6.40;;;;;;;5.06;49.68;95957.53;10509986;28;20546;-77
2023/03/07 19:01:54;;;;;;;9.95;5.85;;;;;;;5.09;49.85;95959.09;10485236;28;20048;-77
2023/03/07 19:07:15;;;;;;;12.00;6.60;;;;;;;5.11;49.27;95959.19;10490962;28;20032;-80
2023/03/07 19:12:36;;;;;;;9.23;5.72;;;;;;;5.08;49.18;95960.41;10475048;28;20052;-79
2023/03/07 19:17:57;;;;;;;10.55;5.82;;;;;;;5.03;48.40;95964.25;10462307;28;20475;-75
2023/03/07 19:23:20;;;;;;;9.90;5.80;;;;;;;5.00;48.22;95962.69;10462738;28;20037;-75
2023/03/07 19:28:41;;;;;;;8.35;5.05;;;;;;;4.94;48.37;95959.56;10481957;28;20047;-75
2023/03/07 19:34:03;;;;;;;9.98;6.32;;;;;;;4.89;48.13;95961.34;10503585;28;20050;-73
2023/03/07 19:39:24;;;;;;;7.90;5.45;;;;;;;4.85;47.65;95952.81;10517124;28;20047;-74
2023/03/07 19:44:45;;;;;;;9.45;6.15;;;;;;;4.81;47.52;95944.28;10502994;28;20044;-75
2023/03/07 19:50:07;;;;;;;10.38;6.22;;;;;;;4.78;47.99;95953.78;10503220;28;20093;-74
2023/03/07 19:55:29;;;;;;;14.52;6.95;;;;;;;4.74;47.83;95956.31;10487981;28;20044;-76
2023/03/07 20:00:50;;;;;;;11.88;7.40;;;;;;;4.70;48.71;95972.63;10496638;28;20054;-75
2023/03/07 20:06:14;;;;;;;12.93;7.85;;;;;;;4.68;48.81;95957.97;10516197;28;20063;-74
2023/03/07 20:11:42;;;;;;;14.57;7.10;;;;;;;4.68;48.94;95969.75;10503144;28;20051;-76
2023/03/07 20:17:02;;;;;;;10.57;6.63;;;;;;;4.70;48.44;95975.38;10481783;28;20540;-76
2023/03/07 20:22:24;;;;;;;14.23;7.63;;;;;;;4.71;48.59;95984.41;10484904;28;20474;-78
2023/03/07 20:27:45;;;;;;;11.88;7.05;;;;;;;4.69;48.46;95982.25;10500089;28;20490;-78
2023/03/07 20:33:06;;;;;;;10.65;6.53;;;;;;;4.68;48.98;95983.56;10485399;28;20036;-79
2023/03/07 20:38:27;;;;;;;10.93;6.45;;;;;;;4.67;48.66;95976.59;10458922;28;20391;-78
2023/03/07 20:44:12;;;;;;;13.52;6.15;;;;;;;4.72;48.98;95985.84;10460839;28;20044;-78
2023/03/07 20:49:37;;;;;;;11.52;6.45;;;;;;;4.71;48.87;95976.09;10471555;28;20052;-78
2023/03/07 20:55:16;;;;;;;8.75;6.07;;;;;;;4.70;48.99;95969.88;10478284;28;20048;-78
2023/03/07 21:00:38;;;;;;;10.50;6.45;;;;;;;4.70;48.28;95971.91;10459842;28;20105;-78
2023/03/07 21:06:01;;;;;;;10.70;5.93;;;;;;;4.65;48.22;95978.53;10486157;28;20059;-78
2023/03/07 21:11:30;;;;;;;13.05;6.50;;;;;;;4.62;48.18;95971.41;10464187;28;20044;-78
2023/03/07 21:16:56;;;;;;;10.27;6.50;;;;;;;4.61;47.85;95976.22;10460262;28;20482;-78
2023/03/07 21:22:31;;;;;;;10.60;6.25;;;;;;;4.52;47.63;95968.75;10468236;28;20053;-78
2023/03/07 21:27:54;;;;;;;9.83;6.00;;;;;;;4.42;47.65;95970.88;10476148;28;20040;-77
2023/03/07 21:33:15;;;;;;;11.05;6.80;;;;;;;4.37;48.08;95980.97;10468294;28;20286;-78
2023/03/07 21:38:36;;;;;;;10.73;6.50;;;;;;;4.31;47.83;95988.84;10456725;28;20048;-78
2023/03/07 21:43:58;;;;;;;9.98;5.70;;;;;;;4.28;47.80;95985.25;10485254;28;20117;-78
2023/03/07 21:49:19;;;;;;;11.77;6.30;;;;;;;4.29;48.23;95981.16;10457633;28;20037;-77
2023/03/07 21:54:40;;;;;;;10.82;5.82;;;;;;;4.30;48.12;95981.88;10458839;28;20390;-77
2023/03/07 22:00:05;;;;;;;9.82;5.88;;;;;;;4.34;48.27;95995.22;10456670;28;20094;-78
2023/03/07 22:05:26;;;;;;;8.57;5.43;;;;;;;4.31;48.09;95986.81;10456909;28;20045;-78
2023/03/07 22:10:59;;;;;;;8.82;5.28;;;;;;;4.35;48.12;95969.06;10455994;28;20382;-77
2023/03/07 22:16:20;;;;;;;10.27;5.88;;;;;;;4.37;48.54;95969.19;10469947;28;20048;-77
2023/03/07 22:21:41;;;;;;;9.05;5.13;;;;;;;4.32;48.12;95982.72;10469890;28;20047;-78
2023/03/07 22:27:02;;;;;;;8.25;4.88;;;;;;;4.31;48.21;95977.81;10455498;28;20041;-77
2023/03/07 22:32:23;;;;;;;8.95;4.80;;;;;;;4.32;48.23;95960.63;10456098;28;20086;-78
2023/03/07 22:37:44;;;;;;;8.95;4.93;;;;;;;4.34;48.47;95964.84;10456360;28;20054;-78
2023/03/07 22:43:06;;;;;;;8.55;5.25;;;;;;;4.37;48.44;95964.38;10469870;28;20041;-78
2023/03/07 22:48:27;;;;;;;9.15;5.25;;;;;;;4.38;48.74;95965.09;10469034;28;20049;-78
2023/03/07 22:53:49;;;;;;;8.27;4.80;;;;;;;4.37;48.95;95964.38;10483319;28;20040;-78
2023/03/07 22:59:10;;;;;;;7.90;4.82;;;;;;;4.35;48.66;95977.34;10468989;28;20048;-78
2023/03/07 23:04:32;;;;;;;7.13;4.53;;;;;;;4.35;49.07;95969.06;10468724;28;20049;-77
2023/03/07 23:09:53;;;;;;;8.30;4.53;;;;;;;4.31;48.96;95992.34;10468503;28;20375;-78
2023/03/07 23:15:15;;;;;;;10.07;5.40;;;;;;;4.26;49.39;95965.06;10454728;28;20041;-78
2023/03/07 23:20:37;;;;;;;8.23;5.18;;;;;;;4.23;49.60;95975.25;10454409;28;20106;-78
2023/03/07 23:25:58;;;;;;;7.40;4.30;;;;;;;4.18;49.59;95989.41;10469020;28;20040;-78
2023/03/07 23:31:22;;;;;;;9.65;4.95;;;;;;;4.03;50.14;96007.81;10454504;28;20169;-78
2023/03/07 23:36:43;;;;;;;10.20;5.77;;;;;;;3.97;50.40;96015.00;10468431;28;20071;-78
2023/03/07 23:42:04;;;;;;;9.20;5.15;;;;;;;3.87;50.79;96026.13;10482411;28;20044;-78
2023/03/07 23:47:25;;;;;;;8.68;5.18;;;;;;;3.77;50.89;96027.50;10468171;28;20049;-78
2023/03/07 23:52:46;;;;;;;9.20;5.22;;;;;;;3.61;51.54;96016.84;10459754;28;20119;-78
2023/03/07 23:58:08;;;;;;;8.07;5.15;;;;;;;3.54;51.14;96014.97;10461788;28;20131;-78
